createdAt,value
2018-02-12T00:00:34.535Z,997.88
2018-02-12T00:01:40.044Z,997.93
2018-02-12T00:02:45.569Z,997.97
2018-02-12T00:03:51.106Z,997.90
2018-02-12T00:04:56.630Z,997.92
2018-02-12T00:06:02.160Z,997.99
2018-02-12T00:07:07.682Z,997.95
2018-02-12T00:08:13.214Z,998.04
2018-02-12T00:09:18.737Z,997.98
2018-02-12T00:10:24.269Z,998.05
2018-02-12T00:11:29.800Z,998.04
2018-02-12T00:12:35.328Z,998.06
2018-02-12T00:13:40.854Z,998.05
2018-02-12T00:14:46.382Z,998.07
2018-02-12T00:15:51.907Z,998.07
2018-02-12T00:16:57.438Z,998.03
2018-02-12T00:18:02.965Z,997.99
2018-02-12T00:19:08.526Z,997.96
2018-02-12T00:20:14.024Z,997.97
2018-02-12T00:21:19.553Z,997.92
2018-02-12T00:22:25.080Z,998.00
2018-02-12T00:23:30.606Z,997.99
2018-02-12T00:24:36.141Z,997.99
2018-02-12T00:25:41.666Z,998.03
2018-02-12T00:26:47.197Z,998.06
2018-02-12T00:27:52.718Z,998.09
2018-02-12T00:28:58.248Z,998.03
2018-02-12T00:30:03.775Z,998.13
2018-02-12T00:31:09.302Z,998.08
2018-02-12T00:32:14.840Z,998.11
2018-02-12T00:33:20.413Z,998.07
2018-02-12T00:34:25.886Z,998.12
2018-02-12T00:35:31.425Z,998.09
2018-02-12T00:36:36.949Z,998.07
2018-02-12T00:37:42.473Z,998.07
2018-02-12T00:38:48.007Z,998.00
2018-02-12T00:39:53.532Z,998.07
2018-02-12T00:40:59.062Z,998.05
2018-02-12T00:42:04.591Z,998.04
2018-02-12T00:43:10.114Z,998.07
2018-02-12T00:44:15.647Z,998.09
2018-02-12T00:45:21.173Z,998.07
2018-02-12T00:46:26.703Z,998.09
2018-02-12T00:47:32.232Z,998.14
2018-02-12T00:48:37.758Z,998.14
2018-02-12T00:49:43.291Z,998.13
2018-02-12T00:50:48.814Z,998.15
2018-02-12T00:51:54.340Z,998.17
2018-02-12T00:52:59.868Z,998.15
2018-02-12T00:54:05.400Z,998.14
2018-02-12T00:55:10.923Z,998.19
2018-02-12T00:56:16.455Z,998.16
2018-02-12T00:57:21.987Z,998.22
2018-02-12T00:58:27.512Z,998.15
2018-02-12T00:59:33.040Z,998.20
2018-02-12T01:00:38.567Z,998.24
2018-02-12T01:01:44.093Z,998.22
2018-02-12T01:02:49.640Z,998.21
2018-02-12T01:03:55.153Z,998.25
2018-02-12T01:05:00.680Z,998.34
2018-02-12T01:06:06.210Z,998.30
2018-02-12T01:07:11.736Z,998.36
2018-02-12T01:08:17.266Z,998.32
2018-02-12T01:09:22.789Z,998.34
2018-02-12T01:10:28.322Z,998.29
2018-02-12T01:11:33.850Z,998.32
2018-02-12T01:12:39.378Z,998.34
2018-02-12T01:13:44.902Z,998.30
2018-02-12T01:14:50.430Z,998.35
2018-02-12T01:15:55.962Z,998.35
2018-02-12T01:17:01.489Z,998.38
2018-02-12T01:18:07.020Z,998.35
2018-02-12T01:19:12.544Z,998.30
2018-02-12T01:20:18.072Z,998.33
2018-02-12T01:21:23.602Z,998.32
2018-02-12T01:22:29.128Z,998.32
2018-02-12T01:23:34.661Z,998.32
2018-02-12T01:24:40.190Z,998.34
2018-02-12T01:25:45.713Z,998.30
2018-02-12T01:26:51.246Z,998.38
2018-02-12T01:27:56.770Z,998.35
2018-02-12T01:29:02.297Z,998.35
2018-02-12T01:30:07.826Z,998.37
2018-02-12T01:31:13.353Z,998.36
2018-02-12T01:32:18.883Z,998.36
2018-02-12T01:33:24.415Z,998.41
2018-02-12T01:34:29.937Z,998.36
2018-02-12T01:35:35.465Z,998.39
2018-02-12T01:36:40.999Z,998.38
2018-02-12T01:37:46.545Z,998.39
2018-02-12T01:38:52.055Z,998.35
2018-02-12T01:39:57.576Z,998.37
2018-02-12T01:41:03.116Z,998.36
2018-02-12T01:42:08.636Z,998.40
2018-02-12T01:43:14.165Z,998.40
2018-02-12T01:44:19.691Z,998.40
2018-02-12T01:45:25.240Z,998.43
2018-02-12T01:46:30.749Z,998.41
2018-02-12T01:47:36.283Z,998.33
2018-02-12T01:48:41.810Z,998.46
2018-02-12T01:49:47.337Z,998.44
2018-02-12T01:50:52.871Z,998.48
2018-02-12T01:51:58.393Z,998.50
2018-02-12T01:53:03.916Z,998.48
2018-02-12T01:54:09.443Z,998.46
2018-02-12T01:55:14.971Z,998.46
2018-02-12T01:56:20.503Z,998.48
2018-02-12T01:57:26.027Z,998.50
2018-02-12T01:58:31.555Z,998.49
2018-02-12T01:59:37.084Z,998.45
2018-02-12T02:00:42.609Z,998.53
2018-02-12T02:01:48.141Z,998.53
2018-02-12T02:02:53.667Z,998.54
2018-02-12T02:03:59.195Z,998.51
2018-02-12T02:05:04.725Z,998.50
2018-02-12T02:06:10.255Z,998.50
2018-02-12T02:07:15.781Z,998.54
2018-02-12T02:08:21.306Z,998.56
2018-02-12T02:09:26.835Z,998.52
2018-02-12T02:10:32.362Z,998.51
2018-02-12T02:11:37.890Z,998.53
2018-02-12T02:12:43.420Z,998.57
2018-02-12T02:13:48.947Z,998.55
2018-02-12T02:14:54.479Z,998.56
2018-02-12T02:16:00.015Z,998.56
2018-02-12T02:17:05.530Z,998.59
2018-02-12T02:18:11.117Z,998.56
2018-02-12T02:19:16.590Z,998.58
2018-02-12T02:20:22.115Z,998.63
2018-02-12T02:21:27.648Z,998.61
2018-02-12T02:22:33.177Z,998.66
2018-02-12T02:23:38.702Z,998.61
2018-02-12T02:24:44.268Z,998.65
2018-02-12T02:25:49.757Z,998.69
2018-02-12T02:26:55.290Z,998.62
2018-02-12T02:28:00.811Z,998.71
2018-02-12T02:29:06.344Z,998.69
2018-02-12T02:30:11.962Z,998.73
2018-02-12T02:31:17.396Z,998.77
2018-02-12T02:32:22.923Z,998.76
2018-02-12T02:33:28.457Z,998.81
2018-02-12T02:34:33.981Z,998.79
2018-02-12T02:35:39.510Z,998.78
2018-02-12T02:36:45.041Z,998.81
2018-02-12T02:37:50.565Z,998.82
2018-02-12T02:38:56.095Z,998.89
2018-02-12T02:40:01.624Z,998.85
2018-02-12T02:41:07.148Z,998.88
2018-02-12T02:42:12.678Z,998.85
2018-02-12T02:43:18.207Z,998.89
2018-02-12T02:44:23.730Z,998.91
2018-02-12T02:45:29.263Z,998.91
2018-02-12T02:46:34.786Z,998.86
2018-02-12T02:47:40.321Z,998.93
2018-02-12T02:48:45.841Z,998.88
2018-02-12T02:49:51.369Z,998.93
2018-02-12T02:50:56.901Z,998.83
2018-02-12T02:52:02.429Z,998.89
2018-02-12T02:53:07.959Z,998.85
2018-02-12T02:54:13.480Z,998.87
2018-02-12T02:55:19.018Z,998.88
2018-02-12T02:56:24.542Z,998.92
2018-02-12T02:57:30.069Z,998.94
2018-02-12T02:58:35.594Z,998.91
2018-02-12T02:59:41.122Z,998.90
2018-02-12T03:00:46.653Z,998.92
2018-02-12T03:01:52.185Z,998.92
2018-02-12T03:02:57.710Z,998.96
2018-02-12T03:04:03.238Z,998.95
2018-02-12T03:05:08.762Z,998.90
2018-02-12T03:06:14.290Z,998.97
2018-02-12T03:07:19.816Z,998.94
2018-02-12T03:08:25.350Z,998.96
2018-02-12T03:09:30.875Z,998.91
2018-02-12T03:10:36.411Z,998.93
2018-02-12T03:11:41.933Z,999.00
2018-02-12T03:12:47.465Z,998.99
2018-02-12T03:13:52.992Z,999.01
2018-02-12T03:14:58.520Z,999.01
2018-02-12T03:16:04.041Z,999.02
2018-02-12T03:17:09.575Z,999.03
2018-02-12T03:18:15.103Z,999.00
2018-02-12T03:19:20.631Z,999.08
2018-02-12T03:20:26.154Z,999.05
2018-02-12T03:21:31.687Z,999.10
2018-02-12T03:22:37.209Z,999.05
2018-02-12T03:23:42.738Z,999.09
2018-02-12T03:24:48.264Z,999.06
2018-02-12T03:25:53.800Z,999.12
2018-02-12T03:26:59.323Z,999.13
2018-02-12T03:28:04.851Z,999.12
2018-02-12T03:29:10.379Z,999.20
2018-02-12T03:30:15.913Z,999.14
2018-02-12T03:31:21.432Z,999.11
2018-02-12T03:32:26.962Z,999.12
2018-02-12T03:33:32.494Z,999.19
2018-02-12T03:34:38.032Z,999.19
2018-02-12T03:35:43.551Z,999.21
2018-02-12T03:36:49.077Z,999.13
2018-02-12T03:37:54.602Z,999.20
2018-02-12T03:39:00.131Z,999.21
2018-02-12T03:40:05.663Z,999.16
2018-02-12T03:41:11.194Z,999.25
2018-02-12T03:42:16.716Z,999.20
2018-02-12T03:43:22.241Z,999.29
2018-02-12T03:44:27.774Z,999.30
2018-02-12T03:45:33.299Z,999.26
2018-02-12T03:46:38.830Z,999.18
2018-02-12T03:47:44.360Z,999.30
2018-02-12T03:48:49.892Z,999.33
2018-02-12T03:49:55.412Z,999.31
2018-02-12T03:51:00.944Z,999.26
2018-02-12T03:52:06.470Z,999.30
2018-02-12T03:53:11.999Z,999.33
2018-02-12T03:54:17.522Z,999.35
2018-02-12T03:55:23.050Z,999.39
2018-02-12T03:56:28.578Z,999.36
2018-02-12T03:57:34.110Z,999.25
2018-02-12T03:58:39.641Z,999.36
2018-02-12T03:59:45.168Z,999.35
2018-02-12T04:00:50.692Z,999.31
2018-02-12T04:01:56.223Z,999.33
2018-02-12T04:03:01.755Z,999.31
2018-02-12T04:04:07.280Z,999.30
2018-02-12T04:05:12.815Z,999.32
2018-02-12T04:06:18.338Z,999.32
2018-02-12T04:07:23.861Z,999.38
2018-02-12T04:08:29.392Z,999.33
2018-02-12T04:09:34.929Z,999.30
2018-02-12T04:10:40.450Z,999.41
2018-02-12T04:11:45.978Z,999.37
2018-02-12T04:12:51.501Z,999.39
2018-02-12T04:13:57.033Z,999.38
2018-02-12T04:15:02.564Z,999.41
2018-02-12T04:16:08.089Z,999.39
2018-02-12T04:17:13.620Z,999.36
2018-02-12T04:18:19.152Z,999.36
2018-02-12T04:19:24.675Z,999.41
2018-02-12T04:20:30.202Z,999.45
2018-02-12T04:21:35.734Z,999.44
2018-02-12T04:22:41.263Z,999.39
2018-02-12T04:23:46.795Z,999.51
2018-02-12T04:24:52.324Z,999.49
2018-02-12T04:25:57.851Z,999.63
2018-02-12T04:27:03.374Z,999.60
2018-02-12T04:28:08.904Z,999.56
2018-02-12T04:29:14.431Z,999.63
2018-02-12T04:30:19.956Z,999.54
2018-02-12T04:31:25.504Z,999.55
2018-02-12T04:32:31.020Z,999.56
2018-02-12T04:33:36.545Z,999.59
2018-02-12T04:34:42.073Z,999.55
2018-02-12T04:35:47.600Z,999.56
2018-02-12T04:36:53.133Z,999.60
2018-02-12T04:37:58.665Z,999.56
2018-02-12T04:39:04.188Z,999.61
2018-02-12T04:40:09.715Z,999.57
2018-02-12T04:41:15.241Z,999.57
2018-02-12T04:42:20.771Z,999.61
2018-02-12T04:43:26.298Z,999.56
2018-02-12T04:44:31.839Z,999.58
2018-02-12T04:45:37.355Z,999.58
2018-02-12T04:46:42.893Z,999.59
2018-02-12T04:47:48.413Z,999.58
2018-02-12T04:48:53.944Z,999.61
2018-02-12T04:49:59.470Z,999.64
2018-02-12T04:51:05.006Z,999.63
2018-02-12T04:52:10.532Z,999.56
2018-02-12T04:53:16.064Z,999.55
2018-02-12T04:54:21.597Z,999.60
2018-02-12T04:55:27.114Z,999.60
2018-02-12T04:56:32.646Z,999.59
2018-02-12T04:57:38.175Z,999.59
2018-02-12T04:58:43.700Z,999.62
2018-02-12T04:59:49.230Z,999.56
2018-02-12T05:00:54.757Z,999.54
2018-02-12T05:02:00.297Z,999.56
2018-02-12T05:03:05.812Z,999.56
2018-02-12T05:04:11.342Z,999.55
2018-02-12T05:05:16.866Z,999.61
2018-02-12T05:06:22.402Z,999.65
2018-02-12T05:07:27.930Z,999.64
2018-02-12T05:08:33.453Z,999.65
2018-02-12T05:09:38.983Z,999.60
2018-02-12T05:10:44.511Z,999.59
2018-02-12T05:11:50.044Z,999.68
2018-02-12T05:12:55.571Z,999.71
2018-02-12T05:14:01.101Z,999.66
2018-02-12T05:15:06.625Z,999.73
2018-02-12T05:16:12.159Z,999.69
2018-02-12T05:17:17.684Z,999.72
2018-02-12T05:18:23.208Z,999.67
2018-02-12T05:19:28.738Z,999.72
2018-02-12T05:20:34.271Z,999.66
2018-02-12T05:21:39.798Z,999.72
2018-02-12T05:22:45.325Z,999.69
2018-02-12T05:23:50.855Z,999.75
2018-02-12T05:24:56.378Z,999.73
2018-02-12T05:26:01.910Z,999.71
2018-02-12T05:27:07.443Z,999.74
2018-02-12T05:28:12.966Z,999.74
2018-02-12T05:29:18.493Z,999.77
2018-02-12T05:30:24.024Z,999.73
2018-02-12T05:31:29.550Z,999.81
2018-02-12T05:32:35.077Z,999.78
2018-02-12T05:33:40.606Z,999.87
2018-02-12T05:34:46.133Z,999.88
2018-02-12T05:35:51.665Z,999.77
2018-02-12T05:36:57.192Z,999.84
2018-02-12T05:38:02.718Z,999.89
2018-02-12T05:39:08.254Z,999.91
2018-02-12T05:40:13.774Z,999.89
2018-02-12T05:41:19.303Z,1000.03
2018-02-12T05:42:24.833Z,999.99
2018-02-12T05:43:30.358Z,1000.02
2018-02-12T05:44:35.888Z,1000.04
2018-02-12T05:45:41.416Z,1000.01
2018-02-12T05:46:46.950Z,1000.03
2018-02-12T05:47:52.473Z,1000.08
2018-02-12T05:48:58.008Z,1000.16
2018-02-12T05:50:03.533Z,1000.15
2018-02-12T05:51:09.063Z,1000.22
2018-02-12T05:52:14.593Z,1000.21
2018-02-12T05:53:20.115Z,1000.24
2018-02-12T05:54:25.648Z,1000.18
2018-02-12T05:55:31.173Z,1000.26
2018-02-12T05:56:36.748Z,1000.25
2018-02-12T05:57:42.232Z,1000.29
2018-02-12T05:58:47.824Z,1000.26
2018-02-12T05:59:53.345Z,1000.29
2018-02-12T06:00:58.813Z,1000.35
2018-02-12T06:02:04.342Z,1000.34
2018-02-12T06:03:09.868Z,1000.37
2018-02-12T06:04:15.400Z,1000.36
2018-02-12T06:05:21.378Z,1000.32
2018-02-12T06:06:26.452Z,1000.38
2018-02-12T06:07:31.988Z,1000.38
2018-02-12T06:08:37.513Z,1000.43
2018-02-12T06:09:43.045Z,1000.44
2018-02-12T06:10:48.695Z,1000.47
2018-02-12T06:11:54.094Z,1000.45
2018-02-12T06:12:59.622Z,1000.50
2018-02-12T06:14:05.151Z,1000.49
2018-02-12T06:15:10.683Z,1000.54
2018-02-12T06:16:16.209Z,1000.48
2018-02-12T06:17:21.734Z,1000.46
2018-02-12T06:18:27.262Z,1000.50
2018-02-12T06:19:32.791Z,1000.55
2018-02-12T06:20:38.428Z,1000.56
2018-02-12T06:21:43.856Z,1000.57
2018-02-12T06:22:49.408Z,1000.52
2018-02-12T06:23:54.948Z,1000.56
2018-02-12T06:25:00.436Z,1000.58
2018-02-12T06:26:05.962Z,1000.68
2018-02-12T06:27:11.494Z,1000.69
2018-02-12T06:28:17.025Z,1000.73
2018-02-12T06:29:22.569Z,1000.76
2018-02-12T06:30:28.156Z,1000.72
2018-02-12T06:31:33.782Z,1000.74
2018-02-12T06:32:39.134Z,1000.66
2018-02-12T06:33:44.672Z,1000.66
2018-02-12T06:34:50.184Z,1000.69
2018-02-12T06:35:55.749Z,1000.62
2018-02-12T06:37:01.245Z,1000.63
2018-02-12T06:38:06.773Z,1000.59
2018-02-12T06:39:12.306Z,1000.68
2018-02-12T06:40:17.840Z,1000.66
2018-02-12T06:41:23.361Z,1000.69
2018-02-12T06:42:28.891Z,1000.72
2018-02-12T06:43:34.421Z,1000.72
2018-02-12T06:44:39.949Z,1000.77
2018-02-12T06:45:45.474Z,1000.80
2018-02-12T06:46:51.219Z,1000.79
2018-02-12T06:47:56.669Z,1000.80
2018-02-12T06:49:02.185Z,1000.86
2018-02-12T06:50:07.586Z,1000.89
2018-02-12T06:51:13.117Z,1000.86
2018-02-12T06:52:18.645Z,1000.90
2018-02-12T06:53:24.176Z,1000.85
2018-02-12T06:54:29.711Z,1000.87
2018-02-12T06:55:35.230Z,1000.85
2018-02-12T06:56:40.755Z,1000.85
2018-02-12T06:57:46.288Z,1000.84
2018-02-12T06:58:51.908Z,1000.85
2018-02-12T06:59:57.342Z,1000.81
2018-02-12T07:01:02.871Z,1000.86
2018-02-12T07:02:08.398Z,1000.91
2018-02-12T07:03:13.926Z,1000.89
2018-02-12T07:04:19.457Z,1000.87
2018-02-12T07:05:24.985Z,1000.95
2018-02-12T07:06:30.519Z,1000.94
2018-02-12T07:09:08.143Z,1001.08
2018-02-12T07:10:13.648Z,1001.06
2018-02-12T07:11:19.177Z,1001.10
2018-02-12T07:12:24.699Z,1001.08
2018-02-12T07:13:30.229Z,1001.07
2018-02-12T07:14:35.760Z,1001.19
2018-02-12T07:15:41.288Z,1001.15
2018-02-12T07:16:46.810Z,1001.16
2018-02-12T07:17:52.343Z,1001.10
2018-02-12T07:18:57.875Z,1001.17
2018-02-12T07:20:03.397Z,1001.15
2018-02-12T07:21:08.926Z,1001.22
2018-02-12T07:22:14.453Z,1001.23
2018-02-12T07:23:19.981Z,1001.17
2018-02-12T07:24:25.509Z,1001.25
2018-02-12T07:25:31.045Z,1001.24
2018-02-12T07:26:36.572Z,1001.25
2018-02-12T07:27:42.099Z,1001.27
2018-02-12T07:28:47.626Z,1001.26
2018-02-12T07:29:53.161Z,1001.24
2018-02-12T07:30:58.682Z,1001.32
2018-02-12T07:32:04.215Z,1001.28
2018-02-12T07:33:09.737Z,1001.33
2018-02-12T07:34:15.265Z,1001.39
2018-02-12T07:35:20.796Z,1001.38
2018-02-12T07:36:26.401Z,1001.45
2018-02-12T07:37:31.852Z,1001.41
2018-02-12T07:38:37.386Z,1001.39
2018-02-12T07:39:42.909Z,1001.39
2018-02-12T07:40:48.458Z,1001.41
2018-02-12T07:41:53.964Z,1001.44
2018-02-12T07:42:59.494Z,1001.48
2018-02-12T07:44:05.022Z,1001.51
2018-02-12T07:45:10.558Z,1001.52
2018-02-12T07:46:16.086Z,1001.50
2018-02-12T07:47:21.610Z,1001.49
2018-02-12T07:49:59.235Z,1001.57
2018-02-12T07:51:04.732Z,1001.55
2018-02-12T07:52:10.261Z,1001.64
2018-02-12T07:53:15.789Z,1001.63
2018-02-12T07:54:21.315Z,1001.59
2018-02-12T07:55:26.840Z,1001.62
2018-02-12T07:56:32.378Z,1001.69
2018-02-12T07:57:37.895Z,1001.69
2018-02-12T07:58:43.424Z,1001.72
2018-02-12T07:59:48.952Z,1001.74
2018-02-12T08:00:54.482Z,1001.72
2018-02-12T08:02:00.021Z,1001.78
2018-02-12T08:03:05.535Z,1001.81
2018-02-12T08:04:11.066Z,1001.85
2018-02-12T08:05:16.596Z,1001.86
2018-02-12T08:06:22.123Z,1001.86
2018-02-12T08:07:27.650Z,1001.88
2018-02-12T08:08:33.175Z,1001.89
2018-02-12T08:09:38.707Z,1001.95
2018-02-12T08:10:44.236Z,1001.90
2018-02-12T08:11:49.764Z,1001.93
2018-02-12T08:12:55.294Z,1001.93
2018-02-12T08:14:00.817Z,1001.94
2018-02-12T08:15:06.345Z,1001.93
2018-02-12T08:16:11.883Z,1001.94
2018-02-12T08:17:17.397Z,1002.02
2018-02-12T08:18:22.935Z,1002.05
2018-02-12T08:21:00.542Z,1002.15
2018-02-12T08:22:06.053Z,1002.14
2018-02-12T08:23:11.578Z,1002.14
2018-02-12T08:24:17.113Z,1002.20
2018-02-12T08:25:22.632Z,1002.22
2018-02-12T08:26:28.157Z,1002.23
2018-02-12T08:27:33.688Z,1002.24
2018-02-12T08:28:39.214Z,1002.31
2018-02-12T08:29:44.751Z,1002.21
2018-02-12T08:30:50.699Z,1002.27
2018-02-12T08:31:55.801Z,1002.21
2018-02-12T08:33:01.332Z,1002.24
2018-02-12T08:34:06.864Z,1002.32
2018-02-12T08:35:12.387Z,1002.32
2018-02-12T08:36:17.922Z,1002.29
2018-02-12T08:37:23.454Z,1002.37
2018-02-12T08:38:28.972Z,1002.34
2018-02-12T08:39:34.498Z,1002.40
2018-02-12T08:40:40.028Z,1002.36
2018-02-12T08:41:45.565Z,1002.44
2018-02-12T08:42:51.083Z,1002.46
2018-02-12T08:43:56.626Z,1002.48
2018-02-12T08:45:02.145Z,1002.41
2018-02-12T08:46:07.666Z,1002.51
2018-02-12T08:47:13.200Z,1002.53
2018-02-12T08:48:18.731Z,1002.57
2018-02-12T08:49:24.254Z,1002.52
2018-02-12T08:50:29.784Z,1002.54
2018-02-12T08:51:35.313Z,1002.56
2018-02-12T08:52:40.839Z,1002.57
2018-02-12T08:53:46.370Z,1002.55
2018-02-12T08:54:51.897Z,1002.57
2018-02-12T08:55:57.422Z,1002.57
2018-02-12T08:57:02.953Z,1002.66
2018-02-12T08:58:08.483Z,1002.64
2018-02-12T08:59:14.014Z,1002.69
2018-02-12T09:00:19.543Z,1002.69
2018-02-12T09:01:25.072Z,1002.77
2018-02-12T09:02:30.607Z,1002.84
2018-02-12T09:03:36.130Z,1002.89
2018-02-12T09:04:41.662Z,1002.90
2018-02-12T09:05:47.191Z,1002.87
2018-02-12T09:06:52.731Z,1002.93
2018-02-12T09:07:58.248Z,1002.91
2018-02-12T09:09:03.782Z,1002.88
2018-02-12T09:10:09.306Z,1002.99
2018-02-12T09:11:14.843Z,1002.98
2018-02-12T09:12:20.370Z,1003.02
2018-02-12T09:13:25.902Z,1003.05
2018-02-12T09:14:31.429Z,1003.17
2018-02-12T09:15:36.954Z,1003.12
2018-02-12T09:16:42.493Z,1003.19
2018-02-12T09:17:48.020Z,1003.17
2018-02-12T09:18:53.562Z,1003.14
2018-02-12T09:19:59.078Z,1003.12
2018-02-12T09:21:04.612Z,1003.10
2018-02-12T09:22:10.131Z,1003.14
2018-02-12T09:23:15.663Z,1003.18
2018-02-12T09:24:21.190Z,1003.20
2018-02-12T09:25:26.722Z,1003.22
2018-02-12T09:26:32.254Z,1003.24
2018-02-12T09:27:37.782Z,1003.31
2018-02-12T09:28:43.316Z,1003.29
2018-02-12T09:29:48.838Z,1003.34
2018-02-12T09:30:54.367Z,1003.34
2018-02-12T09:31:59.928Z,1003.42
2018-02-12T09:33:05.423Z,1003.42
2018-02-12T09:34:10.979Z,1003.47
2018-02-12T09:35:16.487Z,1003.44
2018-02-12T09:36:22.022Z,1003.50
2018-02-12T09:37:27.542Z,1003.48
2018-02-12T09:38:33.073Z,1003.50
2018-02-12T09:39:38.601Z,1003.51
2018-02-12T09:40:44.128Z,1003.52
2018-02-12T09:41:49.663Z,1003.59
2018-02-12T09:42:55.192Z,1003.58
2018-02-12T09:44:00.721Z,1003.65
2018-02-12T09:45:06.251Z,1003.61
2018-02-12T09:46:11.780Z,1003.61
2018-02-12T09:47:17.307Z,1003.71
2018-02-12T09:48:22.835Z,1003.65
2018-02-12T09:49:28.374Z,1003.72
2018-02-12T09:50:33.901Z,1003.76
2018-02-12T09:51:39.429Z,1003.76
2018-02-12T09:52:44.958Z,1003.67
2018-02-12T09:53:50.499Z,1003.71
2018-02-12T09:54:56.012Z,1003.70
2018-02-12T09:56:01.544Z,1003.66
2018-02-12T09:57:07.073Z,1003.70
2018-02-12T09:58:12.603Z,1003.74
2018-02-12T09:59:18.132Z,1003.75
2018-02-12T10:00:23.666Z,1003.75
2018-02-12T10:01:29.191Z,1003.82
2018-02-12T10:02:34.722Z,1003.78
2018-02-12T10:03:40.253Z,1003.78
2018-02-12T10:04:45.781Z,1003.80
2018-02-12T10:05:51.314Z,1003.83
2018-02-12T10:06:56.852Z,1003.83
2018-02-12T10:08:02.375Z,1003.84
2018-02-12T10:09:07.901Z,1003.88
2018-02-12T10:10:13.440Z,1003.84
2018-02-12T10:11:18.958Z,1003.88
2018-02-12T10:12:24.495Z,1003.87
2018-02-12T10:13:30.018Z,1003.84
2018-02-12T10:14:35.543Z,1003.84
2018-02-12T10:15:41.071Z,1003.86
2018-02-12T10:16:46.603Z,1003.89
2018-02-12T10:17:52.134Z,1003.91
2018-02-12T10:18:57.669Z,1003.87
2018-02-12T10:20:03.192Z,1003.92
2018-02-12T10:21:08.722Z,1003.95
2018-02-12T10:22:14.252Z,1003.95
2018-02-12T10:23:19.781Z,1003.94
2018-02-12T10:24:25.313Z,1003.97
2018-02-12T10:25:30.841Z,1003.99
2018-02-12T10:26:36.372Z,1004.08
2018-02-12T10:27:41.898Z,1004.08
2018-02-12T10:28:47.441Z,1004.11
2018-02-12T10:29:52.958Z,1004.14
2018-02-12T10:30:58.501Z,1004.10
2018-02-12T10:32:04.029Z,1004.12
2018-02-12T10:33:09.551Z,1004.21
2018-02-12T10:34:15.082Z,1004.24
2018-02-12T10:35:20.612Z,1004.27
2018-02-12T10:36:26.178Z,1004.26
2018-02-12T10:37:31.688Z,1004.19
2018-02-12T10:38:37.200Z,1004.27
2018-02-12T10:39:42.732Z,1004.28
2018-02-12T10:40:48.266Z,1004.33
2018-02-12T10:41:53.808Z,1004.31
2018-02-12T10:42:59.322Z,1004.33
2018-02-12T10:44:04.861Z,1004.32
2018-02-12T10:45:10.382Z,1004.32
2018-02-12T10:46:15.920Z,1004.31
2018-02-12T10:47:21.440Z,1004.33
2018-02-12T10:48:26.972Z,1004.38
2018-02-12T10:49:32.542Z,1004.36
2018-02-12T10:50:38.040Z,1004.34
2018-02-12T10:51:43.569Z,1004.35
2018-02-12T10:52:49.093Z,1004.36
2018-02-12T10:53:54.630Z,1004.37
2018-02-12T10:55:00.156Z,1004.43
2018-02-12T10:56:05.684Z,1004.44
2018-02-12T10:57:11.220Z,1004.46
2018-02-12T10:58:16.752Z,1004.49
2018-02-12T10:59:22.277Z,1004.52
2018-02-12T11:00:27.806Z,1004.53
2018-02-12T11:01:33.341Z,1004.52
2018-02-12T11:02:38.876Z,1004.51
2018-02-12T11:03:44.448Z,1004.55
2018-02-12T11:04:49.929Z,1004.58
2018-02-12T11:05:55.465Z,1004.56
2018-02-12T11:07:00.992Z,1004.60
2018-02-12T11:08:06.529Z,1004.60
2018-02-12T11:09:12.063Z,1004.58
2018-02-12T11:10:17.586Z,1004.56
2018-02-12T11:11:23.112Z,1004.59
2018-02-12T11:12:28.656Z,1004.66
2018-02-12T11:13:34.178Z,1004.62
2018-02-12T11:14:39.706Z,1004.66
2018-02-12T11:15:45.239Z,1004.67
2018-02-12T11:16:50.770Z,1004.68
2018-02-12T11:17:56.306Z,1004.70
2018-02-12T11:19:01.838Z,1004.75
2018-02-12T11:20:07.368Z,1004.75
2018-02-12T11:21:12.902Z,1004.73
2018-02-12T11:22:18.424Z,1004.81
2018-02-12T11:23:23.956Z,1004.81
2018-02-12T11:24:29.495Z,1004.84
2018-02-12T11:25:35.024Z,1004.82
2018-02-12T11:26:40.546Z,1004.86
2018-02-12T11:27:46.099Z,1004.84
2018-02-12T11:28:51.615Z,1004.89
2018-02-12T11:29:57.143Z,1004.92
2018-02-12T11:31:02.675Z,1004.89
2018-02-12T11:32:08.204Z,1004.96
2018-02-12T11:33:13.749Z,1004.91
2018-02-12T11:34:19.270Z,1004.96
2018-02-12T11:35:24.803Z,1004.88
2018-02-12T11:36:30.331Z,1004.93
2018-02-12T11:37:35.863Z,1004.88
2018-02-12T11:38:41.399Z,1004.97
2018-02-12T11:39:46.971Z,1004.94
2018-02-12T11:40:52.463Z,1004.98
2018-02-12T11:41:57.987Z,1004.91
2018-02-12T11:43:03.525Z,1004.96
2018-02-12T11:44:17.684Z,1004.97
2018-02-12T11:46:07.645Z,1004.97
2018-02-12T11:47:13.141Z,1004.97
2018-02-12T11:49:11.684Z,1004.98
2018-02-12T11:50:17.209Z,1004.95
2018-02-12T11:51:22.741Z,1004.98
2018-02-12T11:52:28.268Z,1004.97
2018-02-12T11:53:33.803Z,1004.97
2018-02-12T11:54:39.333Z,1004.93
2018-02-12T11:55:44.862Z,1004.91
2018-02-12T11:56:50.393Z,1004.96
2018-02-12T11:57:55.928Z,1004.95
2018-02-12T11:59:01.456Z,1004.96
2018-02-12T12:00:06.988Z,1004.99
2018-02-12T12:01:12.520Z,1005.04
2018-02-12T12:02:18.052Z,1005.00
2018-02-12T12:03:23.583Z,1004.95
2018-02-12T12:04:29.120Z,1005.05
2018-02-12T12:05:34.644Z,1005.06
2018-02-12T12:06:40.181Z,1005.04
2018-02-12T12:07:45.712Z,1005.04
2018-02-12T12:08:51.243Z,1005.02
2018-02-12T12:09:56.773Z,1005.10
2018-02-12T12:11:02.304Z,1005.06
2018-02-12T12:12:07.834Z,1005.07
2018-02-12T12:13:13.371Z,1005.07
2018-02-12T12:14:18.906Z,1005.08
2018-02-12T12:15:24.434Z,1005.07
2018-02-12T12:16:29.968Z,1005.09
2018-02-12T12:17:35.503Z,1005.06
2018-02-12T12:18:41.034Z,1005.07
2018-02-12T12:19:46.563Z,1005.13
2018-02-12T12:20:52.095Z,1005.12
2018-02-12T12:21:57.635Z,1005.17
2018-02-12T12:23:03.181Z,1005.14
2018-02-12T12:24:08.694Z,1005.11
2018-02-12T12:25:14.234Z,1005.11
2018-02-12T12:26:19.846Z,1005.08
2018-02-12T12:27:25.290Z,1005.10
2018-02-12T12:28:30.826Z,1005.10
2018-02-12T12:29:36.355Z,1005.10
2018-02-12T12:30:41.892Z,1005.11
2018-02-12T12:31:47.420Z,1005.07
2018-02-12T12:32:52.951Z,1005.17
2018-02-12T12:33:58.495Z,1005.16
2018-02-12T12:35:04.020Z,1005.11
2018-02-12T12:36:09.558Z,1005.08
2018-02-12T12:37:15.085Z,1005.10
2018-02-12T12:38:20.622Z,1005.09
2018-02-12T12:39:26.152Z,1005.05
2018-02-12T12:40:31.683Z,1005.09
2018-02-12T12:41:37.221Z,1005.08
2018-02-12T12:42:42.750Z,1005.09
2018-02-12T12:43:48.280Z,1005.12
2018-02-12T12:44:53.813Z,1005.11
2018-02-12T12:45:59.348Z,1005.10
2018-02-12T12:47:04.881Z,1005.08
2018-02-12T12:48:10.409Z,1005.06
2018-02-12T12:49:15.942Z,1005.10
2018-02-12T12:50:21.473Z,1005.12
2018-02-12T12:51:27.014Z,1005.11
2018-02-12T12:52:32.538Z,1005.09
2018-02-12T12:53:38.084Z,1005.10
2018-02-12T12:54:43.611Z,1005.05
2018-02-12T12:55:49.141Z,1005.16
2018-02-12T12:56:54.673Z,1005.10
2018-02-12T12:58:00.209Z,1005.10
2018-02-12T12:59:05.739Z,1005.10
2018-02-12T13:00:11.267Z,1005.11
2018-02-12T13:01:17.024Z,1005.07
2018-02-12T13:02:22.341Z,1005.04
2018-02-12T13:03:27.866Z,1005.03
2018-02-12T13:04:33.446Z,1005.00
2018-02-12T13:05:38.931Z,1005.08
2018-02-12T13:06:44.466Z,1005.05
2018-02-12T13:07:50.004Z,1005.11
2018-02-12T13:08:55.532Z,1005.10
2018-02-12T13:10:01.062Z,1005.11
2018-02-12T13:11:06.600Z,1005.08
2018-02-12T13:12:12.135Z,1005.11
2018-02-12T13:13:17.700Z,1005.14
2018-02-12T13:14:23.204Z,1005.13
2018-02-12T13:15:28.731Z,1005.14
2018-02-12T13:16:34.271Z,1005.25
2018-02-12T13:17:39.800Z,1005.19
2018-02-12T13:18:45.330Z,1005.20
2018-02-12T13:19:50.861Z,1005.21
2018-02-12T13:20:56.395Z,1005.21
2018-02-12T13:22:01.995Z,1005.19
2018-02-12T13:23:07.463Z,1005.26
2018-02-12T13:24:13.003Z,1005.27
2018-02-12T13:25:18.533Z,1005.22
2018-02-12T13:26:24.065Z,1005.27
2018-02-12T13:27:29.601Z,1005.34
2018-02-12T13:28:35.131Z,1005.33
2018-02-12T13:29:40.663Z,1005.34